sensor_id;sensor_type;location;lat;lon;timestamp;pressure;altitude;pressure_sealevel;temperature;humidity
73240;BME280;61452;40.054;4.110;2022-10-16T00:01:47;101791.63;;;24.62;41.49
73240;BME280;61452;40.054;4.110;2022-10-16T00:06:49;101793.47;;;24.62;41.35
73240;BME280;61452;40.054;4.110;2022-10-16T00:11:51;101794.31;;;24.62;41.52
73240;BME280;61452;40.054;4.110;2022-10-16T00:16:58;101792.47;;;24.63;41.45
73240;BME280;61452;40.054;4.110;2022-10-16T00:22:00;101802.38;;;24.62;41.33
73240;BME280;61452;40.054;4.110;2022-10-16T00:27:02;101808.72;;;24.61;41.33
73240;BME280;61452;40.054;4.110;2022-10-16T00:32:04;101828.34;;;24.62;41.12
73240;BME280;61452;40.054;4.110;2022-10-16T00:37:06;101829.19;;;24.62;41.29
73240;BME280;61452;40.054;4.110;2022-10-16T00:42:15;101824.81;;;24.61;41.41
73240;BME280;61452;40.054;4.110;2022-10-16T00:52:30;101788.09;;;24.62;41.44
73240;BME280;61452;40.054;4.110;2022-10-16T00:57:32;101783.72;;;24.61;41.40
73240;BME280;61452;40.054;4.110;2022-10-16T01:02:34;101782.72;;;24.62;41.49
73240;BME280;61452;40.054;4.110;2022-10-16T01:07:50;101778.22;;;24.62;41.37
73240;BME280;61452;40.054;4.110;2022-10-16T01:13:02;101773.69;;;24.63;41.32
73240;BME280;61452;40.054;4.110;2022-10-16T01:18:28;101775.66;;;24.61;41.56
73240;BME280;61452;40.054;4.110;2022-10-16T01:34:12;101782.72;;;24.62;41.40
73240;BME280;61452;40.054;4.110;2022-10-16T01:39:16;101780.31;;;24.58;41.04
73240;BME280;61452;40.054;4.110;2022-10-16T01:44:24;101783.72;;;24.61;41.12
73240;BME280;61452;40.054;4.110;2022-10-16T01:49:32;101785.56;;;24.60;41.06
73240;BME280;61452;40.054;4.110;2022-10-16T01:54:37;101776.66;;;24.59;41.18
73240;BME280;61452;40.054;4.110;2022-10-16T01:59:46;101776.66;;;24.59;41.40
73240;BME280;61452;40.054;4.110;2022-10-16T02:04:53;101775.81;;;24.59;41.05
73240;BME280;61452;40.054;4.110;2022-10-16T02:09:59;101775.66;;;24.61;41.04
73240;BME280;61452;40.054;4.110;2022-10-16T02:15:02;101781.16;;;24.59;41.21
73240;BME280;61452;40.054;4.110;2022-10-16T02:20:04;101782.88;;;24.60;41.13
73240;BME280;61452;40.054;4.110;2022-10-16T02:25:30;101777.63;;;24.58;41.24
73240;BME280;61452;40.054;4.110;2022-10-16T02:30:39;101769.59;;;24.58;41.24
73240;BME280;61452;40.054;4.110;2022-10-16T02:35:43;101763.50;;;24.56;41.27
73240;BME280;61452;40.054;4.110;2022-10-16T02:40:47;101754.47;;;24.57;41.02
73240;BME280;61452;40.054;4.110;2022-10-16T02:45:49;101757.88;;;24.59;41.19
73240;BME280;61452;40.054;4.110;2022-10-16T02:50:51;101747.28;;;24.58;41.06
73240;BME280;61452;40.054;4.110;2022-10-16T02:55:53;101765.19;;;24.57;41.00
73240;BME280;61452;40.054;4.110;2022-10-16T03:00:55;101755.44;;;24.56;41.19
73240;BME280;61452;40.054;4.110;2022-10-16T03:05:57;101758.00;;;24.58;41.26
73240;BME280;61452;40.054;4.110;2022-10-16T03:10:59;101748.25;;;24.57;41.14
73240;BME280;61452;40.054;4.110;2022-10-16T03:16:02;101734.84;;;24.57;41.39
73240;BME280;61452;40.054;4.110;2022-10-16T03:21:05;101735.69;;;24.57;41.41
73240;BME280;61452;40.054;4.110;2022-10-16T03:26:06;101734.84;;;24.57;41.69
73240;BME280;61452;40.054;4.110;2022-10-16T03:31:08;101715.06;;;24.58;41.85
73240;BME280;61452;40.054;4.110;2022-10-16T03:36:10;101730.31;;;24.57;41.82
73240;BME280;61452;40.054;4.110;2022-10-16T03:41:12;101736.69;;;24.56;41.79
73240;BME280;61452;40.054;4.110;2022-10-16T03:46:14;101728.50;;;24.58;41.50
73240;BME280;61452;40.054;4.110;2022-10-16T03:51:16;101719.59;;;24.57;41.93
73240;BME280;61452;40.054;4.110;2022-10-16T03:56:18;101733.00;;;24.57;41.68
73240;BME280;61452;40.054;4.110;2022-10-16T04:01:20;101720.56;;;24.56;41.44
73240;BME280;61452;40.054;4.110;2022-10-16T04:06:22;101709.84;;;24.56;41.29
73240;BME280;61452;40.054;4.110;2022-10-16T04:11:24;101710.88;;;24.55;41.74
73240;BME280;61452;40.054;4.110;2022-10-16T04:16:26;101719.75;;;24.56;41.33
73240;BME280;61452;40.054;4.110;2022-10-16T04:21:28;101734.84;;;24.57;41.36
73240;BME280;61452;40.054;4.110;2022-10-16T04:26:31;101738.53;;;24.56;41.31
73240;BME280;61452;40.054;4.110;2022-10-16T04:31:33;101734.00;;;24.56;41.30
73240;BME280;61452;40.054;4.110;2022-10-16T04:36:35;101731.31;;;24.56;41.23
73240;BME280;61452;40.054;4.110;2022-10-16T04:41:37;101725.13;;;24.56;41.21
73240;BME280;61452;40.054;4.110;2022-10-16T04:46:39;101707.16;;;24.56;41.21
73240;BME280;61452;40.054;4.110;2022-10-16T04:51:41;101717.06;;;24.56;41.37
73240;BME280;61452;40.054;4.110;2022-10-16T04:56:43;101734.16;;;24.55;41.26
73240;BME280;61452;40.054;4.110;2022-10-16T05:01:49;101743.91;;;24.56;41.51
73240;BME280;61452;40.054;4.110;2022-10-16T05:06:51;101744.88;;;24.55;41.22
73240;BME280;61452;40.054;4.110;2022-10-16T05:11:53;101738.53;;;24.56;41.28
73240;BME280;61452;40.054;4.110;2022-10-16T05:16:55;101755.44;;;24.56;41.45
73240;BME280;61452;40.054;4.110;2022-10-16T05:21:57;101746.72;;;24.54;41.16
73240;BME280;61452;40.054;4.110;2022-10-16T05:26:59;101759.16;;;24.55;41.24
73240;BME280;61452;40.054;4.110;2022-10-16T05:32:01;101763.81;;;24.53;41.26
73240;BME280;61452;40.054;4.110;2022-10-16T05:37:03;101777.22;;;24.53;41.22
73240;BME280;61452;40.054;4.110;2022-10-16T05:42:05;101769.03;;;24.55;41.32
73240;BME280;61452;40.054;4.110;2022-10-16T05:47:08;101769.88;;;24.55;41.22
73240;BME280;61452;40.054;4.110;2022-10-16T05:52:10;101776.22;;;24.54;41.22
73240;BME280;61452;40.054;4.110;2022-10-16T05:57:12;101768.19;;;24.54;41.31
73240;BME280;61452;40.054;4.110;2022-10-16T06:02:14;101767.19;;;24.55;41.37
73240;BME280;61452;40.054;4.110;2022-10-16T06:07:16;101771.72;;;24.55;41.24
73240;BME280;61452;40.054;4.110;2022-10-16T06:12:18;101777.09;;;24.55;41.29
73240;BME280;61452;40.054;4.110;2022-10-16T06:17:20;101783.31;;;24.55;41.25
73240;BME280;61452;40.054;4.110;2022-10-16T06:22:22;101794.88;;;24.56;40.92
73240;BME280;61452;40.054;4.110;2022-10-16T06:27:24;101804.91;;;24.54;41.13
73240;BME280;61452;40.054;4.110;2022-10-16T06:32:28;101799.53;;;24.54;41.12
73240;BME280;61452;40.054;4.110;2022-10-16T06:37:30;101798.69;;;24.53;41.23
73240;BME280;61452;40.054;4.110;2022-10-16T06:42:32;101796.00;;;24.53;41.46
73240;BME280;61452;40.054;4.110;2022-10-16T06:47:34;101806.72;;;24.53;41.12
73240;BME280;61452;40.054;4.110;2022-10-16T06:52:36;101828.19;;;24.53;41.15
73240;BME280;61452;40.054;4.110;2022-10-16T06:57:38;101831.59;;;24.55;41.23
73240;BME280;61452;40.054;4.110;2022-10-16T07:02:40;101838.78;;;24.55;41.18
73240;BME280;61452;40.054;4.110;2022-10-16T07:07:42;101851.22;;;24.56;41.14
73240;BME280;61452;40.054;4.110;2022-10-16T07:12:44;101857.56;;;24.55;41.19
73240;BME280;61452;40.054;4.110;2022-10-16T07:17:46;101852.19;;;24.55;41.01
73240;BME280;61452;40.054;4.110;2022-10-16T07:22:48;101862.09;;;24.54;41.00
73240;BME280;61452;40.054;4.110;2022-10-16T07:27:50;101874.66;;;24.54;40.93
73240;BME280;61452;40.054;4.110;2022-10-16T07:32:52;101873.66;;;24.55;41.22
73240;BME280;61452;40.054;4.110;2022-10-16T07:37:54;101874.66;;;24.54;40.94
73240;BME280;61452;40.054;4.110;2022-10-16T07:42:56;101888.06;;;24.54;40.70
73240;BME280;61452;40.054;4.110;2022-10-16T07:47:58;101884.53;;;24.53;41.03
73240;BME280;61452;40.054;4.110;2022-10-16T07:53:01;101892.56;;;24.53;41.04
73240;BME280;61452;40.054;4.110;2022-10-16T07:58:03;101896.97;;;24.54;40.91
73240;BME280;61452;40.054;4.110;2022-10-16T08:03:06;101906.84;;;24.54;41.00
73240;BME280;61452;40.054;4.110;2022-10-16T08:08:13;101923.91;;;24.53;41.01
73240;BME280;61452;40.054;4.110;2022-10-16T08:13:15;101917.56;;;24.54;40.79
73240;BME280;61452;40.054;4.110;2022-10-16T08:18:17;101922.94;;;24.54;40.96
73240;BME280;61452;40.054;4.110;2022-10-16T08:23:19;101930.84;;;24.55;40.81
73240;BME280;61452;40.054;4.110;2022-10-16T08:28:21;101934.50;;;24.54;40.92
73240;BME280;61452;40.054;4.110;2022-10-16T08:33:23;101941.59;;;24.55;41.00
73240;BME280;61452;40.054;4.110;2022-10-16T08:38:25;101944.28;;;24.55;41.16
73240;BME280;61452;40.054;4.110;2022-10-16T08:49:12;101944.28;;;24.55;41.22
73240;BME280;61452;40.054;4.110;2022-10-16T08:59:25;101952.44;;;24.54;41.20
73240;BME280;61452;40.054;4.110;2022-10-16T09:04:54;101956.84;;;24.55;40.94
73240;BME280;61452;40.054;4.110;2022-10-16T09:10:13;101967.56;;;24.55;41.10
73240;BME280;61452;40.054;4.110;2022-10-16T09:15:39;101964.03;;;24.54;41.29
73240;BME280;61452;40.054;4.110;2022-10-16T09:20:53;101965.72;;;24.55;41.24
73240;BME280;61452;40.054;4.110;2022-10-16T09:25:59;101972.94;;;24.55;41.14
73240;BME280;61452;40.054;4.110;2022-10-16T09:31:01;101979.16;;;24.55;41.03
73240;BME280;61452;40.054;4.110;2022-10-16T09:36:05;101977.31;;;24.56;41.11
73240;BME280;61452;40.054;4.110;2022-10-16T09:41:28;101981.81;;;24.55;40.96
73240;BME280;61452;40.054;4.110;2022-10-16T09:46:35;101977.16;;;24.57;40.85
73240;BME280;61452;40.054;4.110;2022-10-16T09:51:37;101974.63;;;24.56;41.14
73240;BME280;61452;40.054;4.110;2022-10-16T09:56:40;101972.78;;;24.56;41.28
73240;BME280;61452;40.054;4.110;2022-10-16T10:01:48;101966.59;;;24.56;41.24
73240;BME280;61452;40.054;4.110;2022-10-16T10:06:54;101969.09;;;24.57;41.34
73240;BME280;61452;40.054;4.110;2022-10-16T10:11:58;101967.41;;;24.56;41.07
73240;BME280;61452;40.054;4.110;2022-10-16T10:22:18;101969.09;;;24.57;40.96
73240;BME280;61452;40.054;4.110;2022-10-16T10:27:26;101964.88;;;24.55;41.03
73240;BME280;61452;40.054;4.110;2022-10-16T10:32:39;101978.00;;;24.58;41.08
73240;BME280;61452;40.054;4.110;2022-10-16T10:48:50;101967.28;;;24.58;41.19
73240;BME280;61452;40.054;4.110;2022-10-16T10:54:13;101970.69;;;24.60;41.15
73240;BME280;61452;40.054;4.110;2022-10-16T11:09:47;101972.63;;;24.58;41.06
73240;BME280;61452;40.054;4.110;2022-10-16T11:20:25;101973.38;;;24.60;41.45
73240;BME280;61452;40.054;4.110;2022-10-16T11:25:31;101977.75;;;24.61;41.51
73240;BME280;61452;40.054;4.110;2022-10-16T11:36:00;101959.22;;;24.58;41.65
73240;BME280;61452;40.054;4.110;2022-10-16T11:41:16;101956.28;;;24.61;41.61
73240;BME280;61452;40.054;4.110;2022-10-16T11:46:22;101955.84;;;24.56;41.53
73240;BME280;61452;40.054;4.110;2022-10-16T11:51:45;101962.34;;;24.63;41.62
73240;BME280;61452;40.054;4.110;2022-10-16T11:56:53;101960.50;;;24.64;41.84
73240;BME280;61452;40.054;4.110;2022-10-16T12:07:32;101944.41;;;24.64;41.75
73240;BME280;61452;40.054;4.110;2022-10-16T12:12:39;101943.44;;;24.65;41.97
73240;BME280;61452;40.054;4.110;2022-10-16T12:17:42;101930.88;;;24.65;42.10
73240;BME280;61452;40.054;4.110;2022-10-16T12:22:56;101933.53;;;24.65;42.19
73240;BME280;61452;40.054;4.110;2022-10-16T12:28:02;101917.44;;;24.65;42.24
73240;BME280;61452;40.054;4.110;2022-10-16T12:33:23;101915.75;;;24.64;41.97
73240;BME280;61452;40.054;4.110;2022-10-16T12:38:26;101904.03;;;24.65;42.05
73240;BME280;61452;40.054;4.110;2022-10-16T12:48:41;101895.69;;;24.58;42.22
73240;BME280;61452;40.054;4.110;2022-10-16T12:54:22;101919.16;;;24.66;42.04
73240;BME280;61452;40.054;4.110;2022-10-16T13:10:23;101903.06;;;24.66;42.14
73240;BME280;61452;40.054;4.110;2022-10-16T13:31:47;101903.59;;;24.70;41.95
73240;BME280;61452;40.054;4.110;2022-10-16T13:36:51;101904.63;;;24.69;42.01
73240;BME280;61452;40.054;4.110;2022-10-16T13:47:22;101924.22;;;24.69;42.20
73240;BME280;61452;40.054;4.110;2022-10-16T13:52:25;101926.09;;;24.69;42.28
73240;BME280;61452;40.054;4.110;2022-10-16T13:57:28;101938.50;;;24.70;42.31
73240;BME280;61452;40.054;4.110;2022-10-16T14:02:38;101929.47;;;24.71;42.35
73240;BME280;61452;40.054;4.110;2022-10-16T14:07:42;101934.69;;;24.72;42.67
73240;BME280;61452;40.054;4.110;2022-10-16T14:12:44;101929.34;;;24.72;42.32
73240;BME280;61452;40.054;4.110;2022-10-16T14:17:50;101929.34;;;24.72;42.44
73240;BME280;61452;40.054;4.110;2022-10-16T14:23:29;101934.81;;;24.71;42.67
73240;BME280;61452;40.054;4.110;2022-10-16T14:28:32;101935.56;;;24.73;42.61
73240;BME280;61452;40.054;4.110;2022-10-16T14:33:34;101938.38;;;24.71;42.86
73240;BME280;61452;40.054;4.110;2022-10-16T14:38:47;101939.94;;;24.74;42.53
73240;BME280;61452;40.054;4.110;2022-10-16T14:43:52;101936.41;;;24.73;42.34
73240;BME280;61452;40.054;4.110;2022-10-16T14:49:15;101935.56;;;24.73;42.48
73240;BME280;61452;40.054;4.110;2022-10-16T14:54:19;101940.78;;;24.74;42.46
73240;BME280;61452;40.054;4.110;2022-10-16T15:04:32;101945.31;;;24.74;42.63
73240;BME280;61452;40.054;4.110;2022-10-16T15:09:34;101930.91;;;24.75;42.48
73240;BME280;61452;40.054;4.110;2022-10-16T15:14:36;101941.63;;;24.75;42.79
73240;BME280;61452;40.054;4.110;2022-10-16T15:19:38;101946.00;;;24.76;42.49
73240;BME280;61452;40.054;4.110;2022-10-16T15:24:40;101949.53;;;24.76;42.51
73240;BME280;61452;40.054;4.110;2022-10-16T15:29:42;101945.13;;;24.75;42.89
73240;BME280;61452;40.054;4.110;2022-10-16T15:34:44;101944.16;;;24.76;42.72
73240;BME280;61452;40.054;4.110;2022-10-16T15:39:46;101940.63;;;24.76;42.37
73240;BME280;61452;40.054;4.110;2022-10-16T15:44:49;101940.50;;;24.77;42.19
73240;BME280;61452;40.054;4.110;2022-10-16T15:49:51;101937.81;;;24.77;42.45
73240;BME280;61452;40.054;4.110;2022-10-16T15:54:54;101945.88;;;24.77;42.65
73240;BME280;61452;40.054;4.110;2022-10-16T15:59:56;101961.97;;;24.77;42.34
73240;BME280;61452;40.054;4.110;2022-10-16T16:04:58;101964.66;;;24.77;42.35
73240;BME280;61452;40.054;4.110;2022-10-16T16:10:02;101963.66;;;24.78;42.67
73240;BME280;61452;40.054;4.110;2022-10-16T16:15:05;101961.97;;;24.77;42.71
73240;BME280;61452;40.054;4.110;2022-10-16T16:20:08;101970.00;;;24.77;42.46
73240;BME280;61452;40.054;4.110;2022-10-16T16:25:11;101972.69;;;24.77;42.36
73240;BME280;61452;40.054;4.110;2022-10-16T16:30:13;101964.66;;;24.77;42.40
73240;BME280;61452;40.054;4.110;2022-10-16T16:35:20;101969.03;;;24.78;42.42
73240;BME280;61452;40.054;4.110;2022-10-16T16:40:22;101970.59;;;24.81;42.35
73240;BME280;61452;40.054;4.110;2022-10-16T16:45:24;101977.09;;;24.78;42.19
73240;BME280;61452;40.054;4.110;2022-10-16T16:50:35;101987.81;;;24.78;42.38
73240;BME280;61452;40.054;4.110;2022-10-16T16:55:38;101999.28;;;24.80;42.15
73240;BME280;61452;40.054;4.110;2022-10-16T17:00:46;102009.28;;;24.78;42.23
73240;BME280;61452;40.054;4.110;2022-10-16T17:06:05;102004.78;;;24.79;42.26
73240;BME280;61452;40.054;4.110;2022-10-16T17:11:13;102020.88;;;24.79;42.27
73240;BME280;61452;40.054;4.110;2022-10-16T17:16:15;102031.50;;;24.80;42.21
73240;BME280;61452;40.054;4.110;2022-10-16T17:21:18;102034.16;;;24.80;42.14
73240;BME280;61452;40.054;4.110;2022-10-16T17:26:21;102043.19;;;24.79;42.37
73240;BME280;61452;40.054;4.110;2022-10-16T17:31:26;102046.88;;;24.78;42.17
73240;BME280;61452;40.054;4.110;2022-10-16T17:36:31;102059.44;;;24.78;42.10
73240;BME280;61452;40.054;4.110;2022-10-16T17:41:35;102065.66;;;24.78;41.91
73240;BME280;61452;40.054;4.110;2022-10-16T17:46:37;102068.34;;;24.78;42.17
73240;BME280;61452;40.054;4.110;2022-10-16T17:51:42;102082.47;;;24.80;41.92
73240;BME280;61452;40.054;4.110;2022-10-16T17:56:44;102075.28;;;24.81;41.96
73240;BME280;61452;40.054;4.110;2022-10-16T18:01:46;102070.03;;;24.79;41.81
73240;BME280;61452;40.054;4.110;2022-10-16T18:06:48;102076.25;;;24.80;41.67
73240;BME280;61452;40.054;4.110;2022-10-16T18:11:50;102079.81;;;24.80;41.63
73240;BME280;61452;40.054;4.110;2022-10-16T18:17:00;102085.16;;;24.80;41.59
73240;BME280;61452;40.054;4.110;2022-10-16T18:22:02;102081.63;;;24.80;41.59
73240;BME280;61452;40.054;4.110;2022-10-16T18:27:04;102094.91;;;24.81;41.70
73240;BME280;61452;40.054;4.110;2022-10-16T18:32:06;102103.97;;;24.80;41.48
73240;BME280;61452;40.054;4.110;2022-10-16T18:37:08;102114.69;;;24.80;41.44
73240;BME280;61452;40.054;4.110;2022-10-16T18:42:11;102125.44;;;24.80;41.30
73240;BME280;61452;40.054;4.110;2022-10-16T18:47:12;102124.41;;;24.81;41.49
73240;BME280;61452;40.054;4.110;2022-10-16T18:52:15;102125.28;;;24.82;41.22
73240;BME280;61452;40.054;4.110;2022-10-16T18:57:17;102124.41;;;24.81;41.34
73240;BME280;61452;40.054;4.110;2022-10-16T19:02:19;102125.28;;;24.82;41.48
73240;BME280;61452;40.054;4.110;2022-10-16T19:07:21;102131.66;;;24.81;41.29
73240;BME280;61452;40.054;4.110;2022-10-16T19:12:23;102130.63;;;24.82;41.28
73240;BME280;61452;40.054;4.110;2022-10-16T19:17:26;102123.59;;;24.81;41.51
73240;BME280;61452;40.054;4.110;2022-10-16T19:22:28;102124.56;;;24.80;41.19
73240;BME280;61452;40.054;4.110;2022-10-16T19:27:52;102127.25;;;24.80;41.45
73240;BME280;61452;40.054;4.110;2022-10-16T19:32:55;102139.94;;;24.78;41.27
73240;BME280;61452;40.054;4.110;2022-10-16T19:37:57;102128.13;;;24.80;41.22
73240;BME280;61452;40.054;4.110;2022-10-16T19:42:59;102125.44;;;24.80;41.38
73240;BME280;61452;40.054;4.110;2022-10-16T19:48:01;102118.22;;;24.81;41.24
73240;BME280;61452;40.054;4.110;2022-10-16T19:53:04;102126.28;;;24.81;41.18
73240;BME280;61452;40.054;4.110;2022-10-16T19:58:05;102133.47;;;24.80;41.25
73240;BME280;61452;40.054;4.110;2022-10-16T20:03:08;102134.47;;;24.79;41.36
73240;BME280;61452;40.054;4.110;2022-10-16T20:08:10;102126.09;;;24.73;41.47
73240;BME280;61452;40.054;4.110;2022-10-16T20:13:12;102142.50;;;24.79;41.41
73240;BME280;61452;40.054;4.110;2022-10-16T20:18:15;102149.44;;;24.82;41.16
73240;BME280;61452;40.054;4.110;2022-10-16T20:23:18;102154.09;;;24.80;41.70
73240;BME280;61452;40.054;4.110;2022-10-16T20:28:21;102179.97;;;24.81;41.69
73240;BME280;61452;40.054;4.110;2022-10-16T20:33:23;102193.38;;;24.81;41.31
73240;BME280;61452;40.054;4.110;2022-10-16T20:38:25;102204.13;;;24.81;41.27
73240;BME280;61452;40.054;4.110;2022-10-16T20:43:27;102212.19;;;24.81;41.33
73240;BME280;61452;40.054;4.110;2022-10-16T20:48:29;102205.09;;;24.80;41.50
73240;BME280;61452;40.054;4.110;2022-10-16T20:53:32;102204.13;;;24.81;41.67
73240;BME280;61452;40.054;4.110;2022-10-16T20:58:39;102198.88;;;24.79;41.53
73240;BME280;61452;40.054;4.110;2022-10-16T21:03:43;102188.13;;;24.79;41.50
73240;BME280;61452;40.054;4.110;2022-10-16T21:08:45;102179.25;;;24.79;41.24
73240;BME280;61452;40.054;4.110;2022-10-16T21:13:47;102182.78;;;24.79;41.38
73240;BME280;61452;40.054;4.110;2022-10-16T21:18:49;102171.19;;;24.79;41.38
73240;BME280;61452;40.054;4.110;2022-10-16T21:23:55;102178.25;;;24.80;41.54
73240;BME280;61452;40.054;4.110;2022-10-16T21:29:00;102182.78;;;24.79;41.53
73240;BME280;61452;40.054;4.110;2022-10-16T21:34:02;102183.75;;;24.78;41.38
73240;BME280;61452;40.054;4.110;2022-10-16T21:39:07;102186.44;;;24.78;41.41
73240;BME280;61452;40.054;4.110;2022-10-16T21:44:10;102188.13;;;24.79;41.25
73240;BME280;61452;40.054;4.110;2022-10-16T21:49:15;102183.75;;;24.78;41.55
73240;BME280;61452;40.054;4.110;2022-10-16T21:54:20;102188.25;;;24.78;41.61
73240;BME280;61452;40.054;4.110;2022-10-16T21:59:22;102174.84;;;24.78;41.62
73240;BME280;61452;40.054;4.110;2022-10-16T22:04:24;102180.09;;;24.79;41.52
73240;BME280;61452;40.054;4.110;2022-10-16T22:09:26;102167.66;;;24.78;41.97
73240;BME280;61452;40.054;4.110;2022-10-16T22:14:28;102163.97;;;24.79;42.36
73240;BME280;61452;40.054;4.110;2022-10-16T22:19:30;102154.22;;;24.78;42.28
73240;BME280;61452;40.054;4.110;2022-10-16T22:24:32;102152.41;;;24.79;41.92
73240;BME280;61452;40.054;4.110;2022-10-16T22:29:34;102156.06;;;24.78;42.54
73240;BME280;61452;40.054;4.110;2022-10-16T22:34:36;102146.19;;;24.78;42.43
73240;BME280;61452;40.054;4.110;2022-10-16T22:39:38;102147.03;;;24.79;42.37
73240;BME280;61452;40.054;4.110;2022-10-16T22:44:40;102147.88;;;24.79;42.58
73240;BME280;61452;40.054;4.110;2022-10-16T22:49:42;102141.66;;;24.79;42.66
73240;BME280;61452;40.054;4.110;2022-10-16T22:54:44;102145.31;;;24.78;42.48
73240;BME280;61452;40.054;4.110;2022-10-16T22:59:46;102144.34;;;24.79;42.45
73240;BME280;61452;40.054;4.110;2022-10-16T23:04:49;102153.38;;;24.78;42.43
73240;BME280;61452;40.054;4.110;2022-10-16T23:09:51;102151.41;;;24.80;42.08
73240;BME280;61452;40.054;4.110;2022-10-16T23:14:54;102156.06;;;24.78;42.17
73240;BME280;61452;40.054;4.110;2022-10-16T23:19:56;102162.28;;;24.78;42.12
73240;BME280;61452;40.054;4.110;2022-10-16T23:24:58;102163.97;;;24.79;41.96
73240;BME280;61452;40.054;4.110;2022-10-16T23:30:00;102166.78;;;24.78;41.65
73240;BME280;61452;40.054;4.110;2022-10-16T23:35:02;102163.25;;;24.77;42.04
73240;BME280;61452;40.054;4.110;2022-10-16T23:40:05;102159.59;;;24.78;41.69
73240;BME280;61452;40.054;4.110;2022-10-16T23:45:07;102169.47;;;24.78;41.74
73240;BME280;61452;40.054;4.110;2022-10-16T23:50:09;102160.56;;;24.77;41.71
73240;BME280;61452;40.054;4.110;2022-10-16T23:55:11;102174.84;;;24.78;41.62
